Archival Weather

Nawabshah

Nawabshah, Pakistan (OPNH)

Report from: Tuesday, September 19, 2023 3:00 PM PKT
Current time: Tuesday, July 16, 2024 1:15 PM PKT

Current weather – Weather history – Daily summaries
Weather forecast

Temperature38.0°C (100.4°F)
Heat index44.6°C (112.2°F)
Dew point23.0°C (73.4°F)
Winds 14 kts (7.2 m/s, 16.1 mph) Northwest (315°)
Visibility3.7 mi. (6 km)
Clouds Scattered clouds 3,500 ft. (1,067 m)
Altimeter29.56 in.Hg (1001 mB)
Relative humidity42 %
Density altitude3,381 ft. (1,031 m)
Flight conditions Marginal Visual Meteorological Conditions
Raw dataOPNH 191000Z 31514KT 6000 SCT035 38/23 Q1001
An error has occurred. This application may no longer respond until reloaded. Reload 🗙